Time;durP1;ratioP1;P1;durP2;ratioP2;P2;SDS_P1;SDS_P2;PMS_P1;PMS_P2;Temp;Humidity;BMP_temperature;BMP_pressure;BME280_temperature;BME280_humidity;BME280_pressure;Samples;Min_cycle;Max_cycle;Signal;HPM_P1;HPM_P2
2022/06/17 00:01:04;;;;;;;6.40;5.80;;;13.70;99.90;;;;;;4822032;29;20085;-67
2022/06/17 00:03:32;;;;;;;7.50;6.70;;;13.70;99.90;;;;;;4806475;29;20396;-67
2022/06/17 00:06:01;;;;;;;7.57;5.97;;;13.60;99.90;;;;;;4775675;29;20057;-68
2022/06/17 00:08:31;;;;;;;8.88;6.65;;;13.60;99.90;;;;;;4806881;29;20059;-67
2022/06/17 00:10:57;;;;;;;6.78;5.95;;;13.60;99.90;;;;;;4806520;29;20050;-68
2022/06/17 00:13:24;;;;;;;7.35;6.65;;;13.50;99.90;;;;;;4793462;29;20512;-69
2022/06/17 00:15:51;;;;;;;8.13;6.43;;;13.50;99.90;;;;;;4807783;29;20441;-68
2022/06/17 00:18:17;;;;;;;8.40;6.10;;;13.50;99.90;;;;;;4824635;29;20121;-70
2022/06/17 00:20:44;;;;;;;7.22;6.47;;;13.40;99.90;;;;;;4808451;29;20050;-68
2022/06/17 00:23:13;;;;;;;7.22;6.20;;;13.50;99.90;;;;;;4814739;29;20050;-67
2022/06/17 00:25:40;;;;;;;7.07;6.38;;;13.40;99.90;;;;;;4790434;29;20061;-68
2022/06/17 00:28:13;;;;;;;7.25;6.55;;;13.40;99.90;;;;;;4789691;29;20051;-67
2022/06/17 00:30:40;;;;;;;9.68;7.13;;;13.40;99.90;;;;;;4790273;29;20066;-67
2022/06/17 00:33:06;;;;;;;8.60;6.88;;;13.30;99.90;;;;;;4789182;29;20050;-69
2022/06/17 00:35:38;;;;;;;8.55;6.18;;;13.20;99.90;;;;;;4806144;29;20047;-67
2022/06/17 00:38:05;;;;;;;6.60;6.00;;;13.20;99.90;;;;;;4806177;29;20066;-68
2022/06/17 00:40:33;;;;;;;6.93;6.30;;;13.20;99.90;;;;;;4789710;29;20123;-69
2022/06/17 00:43:06;;;;;;;9.45;6.60;;;13.20;99.90;;;;;;4774765;29;20055;-68
2022/06/17 00:45:32;;;;;;;;;;;13.10;99.90;;;;;;4806778;29;20058;-69
2022/06/17 00:48:13;;;;;;;6.93;5.95;;;13.10;99.90;;;;;;4805768;29;20012;-67
2022/06/17 00:51:05;;;;;;;6.85;5.97;;;13.10;99.90;;;;;;4799011;29;20429;-67
2022/06/17 00:53:37;;;;;;;7.07;6.13;;;13.10;99.90;;;;;;4824131;29;20090;-68
2022/06/17 00:56:11;;;;;;;7.00;6.32;;;13.00;99.90;;;;;;4814762;29;20881;-67
2022/06/17 00:58:55;;;;;;;8.18;6.97;;;13.00;99.90;;;;;;4785413;29;20473;-68
2022/06/17 01:01:23;;;;;;;7.00;6.30;;;13.00;99.90;;;;;;4788410;29;20054;-67
2022/06/17 01:03:52;;;;;;;7.60;6.80;;;13.00;99.90;;;;;;4804968;29;20051;-67
2022/06/17 01:06:20;;;;;;;7.70;6.90;;;13.00;99.90;;;;;;4789671;29;20061;-69
2022/06/17 01:11:39;;;;;;;8.30;7.00;;;13.00;99.90;;;;;;4787505;29;20087;-67
2022/06/17 01:14:07;;;;;;;7.82;7.13;;;13.00;99.90;;;;;;4805923;29;20051;-67
2022/06/17 01:16:36;;;;;;;9.98;8.13;;;13.00;99.90;;;;;;4789527;29;20397;-68
2022/06/17 01:19:10;;;;;;;9.55;7.97;;;13.00;99.90;;;;;;4789615;29;20446;-69
2022/06/17 01:21:42;;;;;;;10.50;7.10;;;13.10;99.90;;;;;;4787752;29;20422;-68
2022/06/17 01:24:09;;;;;;;8.02;6.88;;;13.10;99.90;;;;;;4805620;29;20058;-69
2022/06/17 01:26:35;;;;;;;8.15;7.35;;;13.10;99.90;;;;;;4804260;29;20046;-69
2022/06/17 01:29:01;;;;;;;8.07;7.28;;;13.10;99.90;;;;;;4789225;29;20050;-68
2022/06/17 01:31:28;;;;;;;7.70;6.63;;;13.10;99.90;;;;;;4788683;29;20477;-69
2022/06/17 01:33:54;;;;;;;9.27;8.23;;;13.10;99.90;;;;;;4789570;29;20090;-68
2022/06/17 01:36:24;;;;;;;9.02;7.65;;;13.10;99.90;;;;;;4788971;29;20433;-70
2022/06/17 01:38:54;;;;;;;11.75;8.82;;;13.20;99.90;;;;;;4789841;29;20374;-69
2022/06/17 01:41:23;;;;;;;11.35;8.55;;;13.10;99.90;;;;;;4805083;29;20050;-69
2022/06/17 01:43:55;;;;;;;9.45;8.55;;;13.10;99.90;;;;;;4804955;29;20134;-69
2022/06/17 01:46:31;;;;;;;9.73;8.20;;;13.10;99.90;;;;;;4788221;29;20515;-68
2022/06/17 01:49:06;;;;;;;9.30;8.45;;;13.10;99.90;;;;;;4789877;29;20059;-70
2022/06/17 01:51:34;;;;;;;9.43;8.43;;;13.10;99.90;;;;;;4789335;29;20055;-68
2022/06/17 01:54:05;;;;;;;9.65;8.65;;;13.10;99.90;;;;;;4789373;29;20549;-68
2022/06/17 01:56:34;;;;;;;11.65;8.57;;;13.10;99.90;;;;;;4804377;29;20484;-70
2022/06/17 01:59:15;;;;;;;9.55;8.55;;;13.10;99.90;;;;;;4790090;29;20062;-70
2022/06/17 02:01:45;;;;;;;9.00;8.10;;;13.10;99.90;;;;;;4805522;29;20570;-67
2022/06/17 02:04:28;;;;;;;8.90;8.00;;;13.10;99.90;;;;;;4791536;29;20054;-69
2022/06/17 02:07:22;;;;;;;9.25;8.35;;;13.10;99.90;;;;;;4790846;29;20078;-69
2022/06/17 02:09:49;;;;;;;10.57;8.68;;;13.10;99.90;;;;;;4808769;29;20051;-67
2022/06/17 02:12:17;;;;;;;9.63;8.70;;;13.10;99.90;;;;;;4807246;29;20050;-68
2022/06/17 02:15:01;;;;;;;9.27;8.38;;;13.10;99.90;;;;;;4792221;29;20054;-68
2022/06/17 02:17:38;;;;;;;9.23;8.27;;;13.10;99.90;;;;;;4792027;29;20082;-67
2022/06/17 02:20:04;;;;;;;9.15;8.27;;;13.00;99.90;;;;;;4792309;29;20134;-68
2022/06/17 02:22:32;;;;;;;9.45;8.55;;;13.10;99.90;;;;;;4791392;29;20086;-67
2022/06/17 02:25:00;;;;;;;8.77;7.80;;;13.00;99.90;;;;;;4789527;29;20099;-70
2022/06/17 02:27:27;;;;;;;9.50;8.60;;;13.10;99.90;;;;;;4792607;29;20059;-68
2022/06/17 02:29:54;;;;;;;11.55;8.60;;;13.00;99.90;;;;;;4791919;29;20516;-70
2022/06/17 02:32:20;;;;;;;10.27;8.48;;;13.00;99.90;;;;;;4792129;29;20494;-69
2022/06/17 02:35:04;;;;;;;11.40;9.10;;;12.90;99.90;;;;;;4807780;29;20080;-67
2022/06/17 02:37:31;;;;;;;8.60;7.80;;;13.00;99.90;;;;;;4791320;29;20067;-68
2022/06/17 02:40:01;;;;;;;8.77;7.88;;;12.90;99.90;;;;;;4806265;29;20046;-67
2022/06/17 02:42:35;;;;;;;10.68;8.07;;;12.90;99.90;;;;;;4776978;29;20114;-67
2022/06/17 02:45:12;;;;;;;8.10;6.95;;;12.90;99.90;;;;;;4807596;29;20047;-68
2022/06/17 02:47:38;;;;;;;8.93;8.00;;;12.90;99.90;;;;;;4807041;29;20063;-69
2022/06/17 02:50:06;;;;;;;10.32;8.52;;;12.90;99.90;;;;;;4791911;29;20527;-68
2022/06/17 02:52:38;;;;;;;8.80;7.80;;;12.90;99.90;;;;;;4791701;29;20064;-67
2022/06/17 02:55:12;;;;;;;8.82;7.72;;;12.90;99.90;;;;;;4806301;29;20466;-68
2022/06/17 02:57:39;;;;;;;9.25;8.25;;;12.90;99.90;;;;;;4791430;29;20058;-69
2022/06/17 03:00:20;;;;;;;10.73;8.32;;;12.90;99.90;;;;;;4792372;29;20050;-67
2022/06/17 03:03:01;;;;;;;9.77;8.67;;;12.90;99.90;;;;;;4804967;29;20058;-68
2022/06/17 03:05:30;;;;;;;9.15;7.72;;;12.90;99.90;;;;;;4791939;29;20074;-68
2022/06/17 03:07:57;;;;;;;8.30;7.50;;;13.00;99.90;;;;;;4791255;29;20057;-68
2022/06/17 03:10:43;;;;;;;9.52;7.93;;;13.00;99.90;;;;;;4807231;29;20103;-68
2022/06/17 03:13:36;;;;;;;12.40;8.25;;;13.00;99.90;;;;;;4806479;29;20058;-69
2022/06/17 03:16:04;;;;;;;8.90;7.82;;;13.00;99.90;;;;;;4789969;29;20065;-67
2022/06/17 03:18:30;;;;;;;9.43;8.13;;;13.00;99.90;;;;;;4790910;29;20050;-68
2022/06/17 03:20:57;;;;;;;10.43;8.23;;;13.10;99.90;;;;;;4792115;29;20047;-68
2022/06/17 03:23:28;;;;;;;10.00;8.82;;;13.00;99.90;;;;;;4807481;29;20090;-68
2022/06/17 03:26:14;;;;;;;14.63;8.52;;;13.10;99.90;;;;;;4789998;29;20429;-68
2022/06/17 03:28:51;;;;;;;10.32;8.43;;;13.20;99.90;;;;;;4806602;29;20481;-67
2022/06/17 03:31:22;;;;;;;13.32;8.20;;;13.20;99.90;;;;;;4806746;29;20183;-68
2022/06/17 03:34:03;;;;;;;10.03;8.40;;;13.20;99.90;;;;;;4790676;29;20055;-67
2022/06/17 03:36:40;;;;;;;10.23;8.60;;;13.30;99.90;;;;;;4791143;29;20067;-69
2022/06/17 03:39:36;;;;;;;9.27;7.25;;;13.30;99.90;;;;;;4775810;29;20126;-69
2022/06/17 03:42:26;;;;;;;12.63;7.32;;;13.40;99.90;;;;;;4797095;29;20090;-67
2022/06/17 03:45:17;;;;;;;13.95;7.82;;;13.50;99.90;;;;;;4789112;29;20349;-70
2022/06/17 03:48:02;;;;;;;7.78;6.97;;;13.50;99.90;;;;;;4788711;30;20122;-70
2022/06/17 03:50:36;;;;;;;15.70;8.43;;;13.50;99.90;;;;;;4789337;30;20050;-67
2022/06/17 03:53:17;;;;;;;10.43;9.02;;;13.60;99.90;;;;;;4797199;29;20047;-69
2022/06/17 03:55:43;;;;;;;9.75;8.30;;;13.60;99.90;;;;;;4804687;29;20062;-67
2022/06/17 03:58:14;;;;;;;11.75;9.50;;;13.70;99.90;;;;;;4790761;29;20385;-69
2022/06/17 04:00:55;;;;;;;12.02;9.63;;;13.80;99.90;;;;;;4806579;29;20062;-68
2022/06/17 04:03:24;;;;;;;14.45;9.43;;;13.90;99.90;;;;;;4791283;29;20050;-70
2022/06/17 04:06:02;;;;;;;8.02;7.30;;;13.90;99.90;;;;;;4804857;29;20050;-70
2022/06/17 04:08:28;;;;;;;11.48;8.80;;;13.90;99.90;;;;;;4790361;29;20404;-69
2022/06/17 04:10:53;;;;;;;10.52;8.60;;;14.00;99.90;;;;;;4806280;29;20043;-67
2022/06/17 04:13:24;;;;;;;12.98;9.32;;;14.00;99.90;;;;;;4789685;29;20130;-68
2022/06/17 04:16:25;;;;;;;14.98;10.57;;;14.20;99.90;;;;;;4789710;29;20087;-69
2022/06/17 04:18:51;;;;;;;11.52;10.05;;;14.30;99.90;;;;;;4790393;29;20046;-68
2022/06/17 04:21:16;;;;;;;11.70;9.02;;;14.50;99.90;;;;;;4788896;29;20480;-69
2022/06/17 04:23:47;;;;;;;11.30;9.20;;;14.60;99.90;;;;;;4789300;29;20200;-68
2022/06/17 04:26:24;;;;;;;11.98;10.77;;;14.80;99.90;;;;;;4788925;29;20062;-68
2022/06/17 04:29:18;;;;;;;12.05;10.85;;;14.90;99.90;;;;;;4790449;29;20193;-70
2022/06/17 04:31:47;;;;;;;12.48;10.60;;;15.00;99.90;;;;;;4803374;29;20064;-69
2022/06/17 04:34:18;;;;;;;12.13;10.88;;;15.00;99.90;;;;;;4806351;29;20058;-70
2022/06/17 04:36:52;;;;;;;14.43;11.40;;;15.10;99.90;;;;;;4788558;29;20091;-69
2022/06/17 04:39:28;;;;;;;11.32;10.10;;;15.20;99.90;;;;;;4785950;29;20057;-68
2022/06/17 04:41:58;;;;;;;11.63;10.43;;;15.30;99.90;;;;;;4790020;29;20058;-68
2022/06/17 04:44:24;;;;;;;12.02;10.77;;;15.40;99.90;;;;;;4806380;29;20066;-68
2022/06/17 04:46:58;;;;;;;14.80;10.93;;;15.40;99.90;;;;;;4789176;29;20051;-68
2022/06/17 04:49:26;;;;;;;13.95;10.77;;;15.50;99.90;;;;;;4805827;29;20135;-69
2022/06/17 04:52:02;;;;;;;13.65;10.95;;;15.60;99.90;;;;;;4805545;29;20058;-67
2022/06/17 04:54:29;;;;;;;10.80;9.73;;;15.70;99.90;;;;;;4786985;29;20131;-68
2022/06/17 04:56:57;;;;;;;11.85;10.43;;;15.80;99.90;;;;;;4805114;29;20058;-67
2022/06/17 04:59:28;;;;;;;14.35;9.85;;;15.80;99.90;;;;;;4806112;29;20058;-70
2022/06/17 05:01:54;;;;;;;11.82;10.23;;;15.90;99.90;;;;;;4787899;29;20058;-71
2022/06/17 05:04:20;;;;;;;10.75;9.75;;;15.90;99.90;;;;;;4790051;29;20053;-68
2022/06/17 05:06:46;;;;;;;10.38;9.38;;;15.90;99.90;;;;;;4789457;29;20172;-68
2022/06/17 05:09:31;;;;;;;10.63;8.75;;;15.90;99.90;;;;;;4804582;29;20463;-69
2022/06/17 05:12:04;;;;;;;10.85;9.32;;;15.90;99.90;;;;;;4805031;29;20142;-68
2022/06/17 05:14:45;;;;;;;10.77;9.68;;;16.00;99.90;;;;;;4787410;29;20058;-67
2022/06/17 05:17:10;;;;;;;10.07;8.90;;;16.00;99.90;;;;;;4785792;30;20059;-69
2022/06/17 05:19:36;;;;;;;10.95;9.90;;;16.00;99.90;;;;;;4798499;29;20058;-68
2022/06/17 05:22:09;;;;;;;11.60;9.60;;;16.10;99.90;;;;;;4788767;29;20392;-70
2022/06/17 05:24:35;;;;;;;11.55;8.95;;;16.20;99.90;;;;;;4788528;29;20063;-68
2022/06/17 05:27:00;;;;;;;13.68;9.90;;;16.20;99.90;;;;;;4805771;29;20059;-68
2022/06/17 05:29:26;;;;;;;11.25;9.60;;;16.30;99.90;;;;;;4804380;29;20067;-69
2022/06/17 05:31:52;;;;;;;10.23;9.23;;;16.30;99.90;;;;;;4801468;29;20054;-68
2022/06/17 05:34:18;;;;;;;12.02;9.90;;;16.40;99.90;;;;;;4772784;29;20046;-68
2022/06/17 05:37:13;;;;;;;10.18;8.90;;;16.40;99.90;;;;;;4801067;29;20059;-70
2022/06/17 05:39:40;;;;;;;12.13;10.02;;;16.20;99.90;;;;;;4780892;29;20055;-70
2022/06/17 05:42:06;;;;;;;10.82;9.20;;;16.40;99.90;;;;;;4789709;29;20053;-66
2022/06/17 05:44:33;;;;;;;9.88;8.98;;;16.60;99.90;;;;;;4792218;29;20061;-70
2022/06/17 05:46:59;;;;;;;11.25;10.00;;;16.60;99.90;;;;;;4787502;29;20482;-69
2022/06/17 05:49:25;;;;;;;9.98;8.98;;;16.60;99.90;;;;;;4790086;29;20095;-69
2022/06/17 05:51:51;;;;;;;9.75;8.85;;;16.70;99.90;;;;;;4786588;29;20066;-68
2022/06/17 05:54:17;;;;;;;11.25;9.40;;;16.70;99.90;;;;;;4803410;29;20047;-69
2022/06/17 05:56:44;;;;;;;10.18;9.10;;;16.80;99.90;;;;;;4792236;29;20134;-67
2022/06/17 05:59:10;;;;;;;10.27;9.10;;;16.80;99.90;;;;;;4796502;29;20047;-67
2022/06/17 06:01:36;;;;;;;9.10;8.30;;;16.80;99.90;;;;;;4791939;29;20064;-69
2022/06/17 06:04:02;;;;;;;10.18;8.80;;;16.90;99.90;;;;;;4792756;29;20125;-68
2022/06/17 06:06:28;;;;;;;12.73;9.55;;;16.90;99.90;;;;;;4791005;29;20074;-68
2022/06/17 06:08:53;;;;;;;9.23;8.20;;;16.90;99.90;;;;;;4804856;29;20046;-68
2022/06/17 06:11:19;;;;;;;9.50;8.52;;;17.10;99.90;;;;;;4791885;29;20058;-69
2022/06/17 06:13:45;;;;;;;10.55;9.40;;;17.00;99.90;;;;;;4794104;29;20085;-68
2022/06/17 06:16:11;;;;;;;11.45;8.50;;;17.10;99.90;;;;;;4788583;30;20051;-68
2022/06/17 06:18:39;;;;;;;10.30;9.02;;;17.20;99.90;;;;;;4790069;30;20055;-68
2022/06/17 06:21:06;;;;;;;11.27;8.88;;;17.20;99.90;;;;;;4791536;29;20489;-68
2022/06/17 06:23:33;;;;;;;11.13;8.52;;;17.20;99.90;;;;;;4807953;29;20059;-68
2022/06/17 06:25:58;;;;;;;9.45;8.55;;;17.20;99.90;;;;;;4808239;29;20074;-67
2022/06/17 06:28:25;;;;;;;9.90;8.00;;;17.30;99.90;;;;;;4806057;29;20086;-68
2022/06/17 06:30:59;;;;;;;10.02;8.95;;;17.40;99.90;;;;;;4792141;29;20054;-69
2022/06/17 06:33:25;;;;;;;10.18;8.15;;;17.50;99.90;;;;;;4808432;29;20093;-67
2022/06/17 06:35:51;;;;;;;12.13;9.27;;;17.60;99.90;;;;;;4792765;29;20086;-68
2022/06/17 06:38:16;;;;;;;10.05;9.15;;;17.60;99.90;;;;;;4806761;29;20089;-68
2022/06/17 06:40:42;;;;;;;9.85;8.95;;;17.70;99.90;;;;;;4807123;29;20065;-69
2022/06/17 06:43:17;;;;;;;10.20;9.30;;;17.80;99.90;;;;;;4804981;29;20066;-68
2022/06/17 06:45:45;;;;;;;10.60;9.50;;;17.90;99.90;;;;;;4790806;29;20059;-69
2022/06/17 06:48:12;;;;;;;10.80;9.80;;;18.30;99.90;;;;;;4790734;29;20089;-68
2022/06/17 06:50:38;;;;;;;11.65;10.52;;;18.30;99.90;;;;;;4791983;29;20122;-68
2022/06/17 06:53:05;;;;;;;10.10;9.05;;;18.50;99.90;;;;;;4807199;29;20055;-66
2022/06/17 06:55:34;;;;;;;10.43;9.35;;;18.80;99.90;;;;;;4807399;29;20137;-68
2022/06/17 06:58:02;;;;;;;12.70;9.82;;;18.90;99.90;;;;;;4791312;29;20046;-67
2022/06/17 07:00:32;;;;;;;10.20;9.30;;;19.10;99.90;;;;;;4808108;29;20046;-68
2022/06/17 07:02:57;;;;;;;11.32;10.02;;;19.30;99.90;;;;;;4791083;29;20603;-69
2022/06/17 07:05:23;;;;;;;11.32;10.23;;;19.50;99.90;;;;;;4791181;29;20137;-69
2022/06/17 07:07:49;;;;;;;10.30;9.02;;;19.70;99.90;;;;;;4790633;29;20058;-68
2022/06/17 07:10:20;;;;;;;10.98;9.88;;;20.00;99.90;;;;;;4776158;29;20062;-67
2022/06/17 07:12:47;;;;;;;10.27;9.13;;;20.20;99.90;;;;;;4790924;29;20055;-69
2022/06/17 07:15:13;;;;;;;11.30;9.60;;;20.30;99.90;;;;;;4776267;29;20150;-68
2022/06/17 07:17:39;;;;;;;12.02;8.60;;;20.40;99.90;;;;;;4790938;29;20493;-68
2022/06/17 07:20:06;;;;;;;9.98;8.98;;;20.50;99.90;;;;;;4791500;29;20541;-69
2022/06/17 07:22:31;;;;;;;11.43;9.43;;;20.60;99.90;;;;;;4791093;29;20086;-68
2022/06/17 07:24:57;;;;;;;10.60;9.60;;;20.70;99.90;;;;;;4791636;29;20097;-67
2022/06/17 07:27:23;;;;;;;10.43;9.30;;;20.60;99.90;;;;;;4790938;29;20057;-69
2022/06/17 07:29:49;;;;;;;10.25;9.27;;;20.70;99.90;;;;;;4807520;29;20058;-68
2022/06/17 07:32:14;;;;;;;9.95;8.98;;;20.80;99.90;;;;;;4806642;29;20082;-67
2022/06/17 07:34:40;;;;;;;9.80;8.73;;;20.80;99.90;;;;;;4791198;29;20097;-67
2022/06/17 07:39:53;;;;;;;9.30;8.07;;;21.00;99.90;;;;;;4807275;29;20050;-71
2022/06/17 07:42:19;;;;;;;11.98;9.13;;;21.20;99.90;;;;;;4806531;29;20039;-68
2022/06/17 07:44:44;;;;;;;10.23;8.43;;;21.30;99.90;;;;;;4790716;29;20065;-69
2022/06/17 07:47:19;;;;;;;8.45;7.53;;;21.40;99.90;;;;;;4790029;29;20046;-67
2022/06/17 07:49:45;;;;;;;10.57;8.75;;;21.40;99.90;;;;;;4806971;29;20140;-68
2022/06/17 07:52:11;;;;;;;8.88;7.93;;;21.50;99.90;;;;;;4806665;29;20104;-71
2022/06/17 07:54:37;;;;;;;8.90;7.18;;;21.80;99.90;;;;;;4790828;29;20054;-67
2022/06/17 07:57:02;;;;;;;9.93;7.63;;;22.20;99.90;;;;;;4790610;29;20058;-70
2022/06/17 07:59:28;;;;;;;8.00;7.07;;;22.30;99.90;;;;;;4807177;29;20463;-68
2022/06/17 08:01:54;;;;;;;8.18;7.38;;;22.40;99.90;;;;;;4806369;29;20050;-66
2022/06/17 08:04:19;;;;;;;10.43;7.07;;;22.50;99.90;;;;;;4790948;29;20051;-67
2022/06/17 08:06:49;;;;;;;10.57;7.05;;;22.50;99.90;;;;;;4805414;29;20058;-67
2022/06/17 08:09:17;;;;;;;7.47;6.72;;;22.50;99.90;;;;;;4803213;29;20050;-67
2022/06/17 08:11:42;;;;;;;9.50;7.35;;;22.50;99.90;;;;;;4788269;29;20054;-67
2022/06/17 08:14:08;;;;;;;7.70;6.82;;;22.50;99.90;;;;;;4805697;29;20047;-65
2022/06/17 08:16:35;;;;;;;9.38;7.65;;;22.50;99.90;;;;;;4789265;29;20126;-66
2022/06/17 08:19:04;;;;;;;10.48;7.55;;;22.50;99.90;;;;;;4805129;29;20062;-67
2022/06/17 08:21:30;;;;;;;8.40;6.68;;;22.60;99.90;;;;;;4803756;29;20065;-67
2022/06/17 08:23:56;;;;;;;8.43;7.35;;;22.70;99.90;;;;;;4806165;29;20481;-68
2022/06/17 08:26:22;;;;;;;10.45;7.35;;;22.90;99.90;;;;;;4805793;29;20058;-68
2022/06/17 08:28:47;;;;;;;11.05;9.10;;;22.90;99.90;;;;;;4805941;29;20506;-67
2022/06/17 08:31:13;;;;;;;9.20;7.20;;;22.90;99.90;;;;;;4805894;29;20133;-67
2022/06/17 08:33:38;;;;;;;9.80;7.90;;;23.00;99.90;;;;;;4790137;29;20047;-67
2022/06/17 08:36:12;;;;;;;11.00;7.47;;;23.10;99.90;;;;;;4789377;29;20066;-68
2022/06/17 08:38:41;;;;;;;9.10;7.35;;;23.20;99.90;;;;;;4805401;29;20078;-67
2022/06/17 08:41:33;;;;;;;9.48;6.65;;;23.30;99.90;;;;;;4789201;29;20097;-69
2022/06/17 08:44:13;;;;;;;;;;;23.30;99.90;;;;;;4789959;29;20067;-70
2022/06/17 08:46:59;;;;;;;8.27;6.32;;;23.20;96.60;;;;;;4784730;29;19925;-69
2022/06/17 08:49:46;;;;;;;7.22;6.45;;;23.30;99.90;;;;;;4774282;29;20456;-68
2022/06/17 08:52:37;;;;;;;7.88;6.75;;;23.30;99.90;;;;;;4789793;29;20065;-70
2022/06/17 08:55:39;;;;;;;12.38;6.05;;;23.50;99.90;;;;;;4804865;29;20162;-66
2022/06/17 08:58:20;;;;;;;8.20;4.97;;;23.60;84.60;;;;;;4789724;29;20055;-68
2022/06/17 09:01:22;;;;;;;8.73;5.10;;;23.70;99.90;;;;;;4789052;29;20077;-69
2022/06/17 09:03:59;;;;;;;6.60;4.70;;;23.70;95.70;;;;;;4805643;29;20397;-69
2022/06/17 09:06:46;;;;;;;6.57;5.47;;;23.80;97.30;;;;;;4789428;29;20065;-67
2022/06/17 09:09:38;;;;;;;9.30;5.32;;;23.60;79.20;;;;;;4805398;29;20054;-67
2022/06/17 09:12:22;;;;;;;8.70;5.38;;;23.50;91.70;;;;;;4789777;29;20165;-68
2022/06/17 09:15:32;;;;;;;7.45;4.80;;;23.40;97.20;;;;;;4805866;29;20176;-69
2022/06/17 09:18:05;;;;;;;7.03;3.90;;;23.50;89.90;;;;;;4755679;29;20054;-68
2022/06/17 09:20:36;;;;;;;7.95;4.65;;;23.60;96.40;;;;;;4787817;29;20083;-69
2022/06/17 09:23:04;;;;;;;7.50;4.70;;;23.60;97.20;;;;;;4803598;29;20062;-69
2022/06/17 09:25:38;;;;;;;6.93;4.40;;;23.70;95.60;;;;;;4787987;29;20127;-70
2022/06/17 09:28:14;;;;;;;5.13;4.40;;;23.60;93.50;;;;;;4805230;29;20439;-69
2022/06/17 09:30:47;;;;;;;5.95;4.07;;;23.70;96.70;;;;;;4789262;29;20055;-67
2022/06/17 09:33:27;;;;;;;6.03;4.20;;;23.70;87.00;;;;;;4805164;29;20046;-68
2022/06/17 09:36:10;;;;;;;7.93;4.00;;;23.70;94.80;;;;;;4787614;29;20058;-68
2022/06/17 09:38:58;;;;;;;7.10;4.13;;;23.90;84.90;;;;;;4804453;29;20361;-68
2022/06/17 09:41:37;;;;;;;7.97;4.00;;;24.10;88.90;;;;;;4802823;29;20046;-69
2022/06/17 09:44:11;;;;;;;6.10;4.10;;;24.20;85.20;;;;;;4803344;29;20058;-68
2022/06/17 09:46:42;;;;;;;10.23;4.63;;;24.30;90.30;;;;;;4802538;29;20434;-69
2022/06/17 09:49:14;;;;;;;;;;;24.20;87.00;;;;;;4802640;29;20073;-70
2022/06/17 09:51:47;;;;;;;5.90;4.07;;;24.20;91.70;;;;;;4803744;29;19960;-70
2022/06/17 09:54:27;;;;;;;7.78;4.53;;;24.30;90.90;;;;;;4773816;29;20085;-70
2022/06/17 09:57:06;;;;;;;8.85;4.40;;;24.40;90.70;;;;;;4803393;29;20089;-69
2022/06/17 09:59:38;;;;;;;4.10;3.70;;;24.70;85.70;;;;;;4787556;29;20464;-69
2022/06/17 10:02:33;;;;;;;7.63;4.70;;;25.00;80.50;;;;;;4804596;29;20058;-68
2022/06/17 10:05:00;;;;;;;7.63;4.03;;;25.20;73.80;;;;;;4788434;29;20055;-69
2022/06/17 10:07:45;;;;;;;5.35;3.90;;;25.30;77.90;;;;;;4788814;29;20389;-66
2022/06/17 10:10:44;;;;;;;5.47;4.82;;;25.20;76.10;;;;;;4805348;29;20059;-67
2022/06/17 10:13:44;;;;;;;4.72;4.30;;;25.20;70.50;;;;;;4803104;29;20090;-67
2022/06/17 10:19:58;;;;;;;9.18;4.72;;;25.20;74.50;;;;;;4805179;29;20051;-68
2022/06/17 10:22:39;;;;;;;7.40;3.80;;;25.30;75.20;;;;;;4805288;29;20059;-67
2022/06/17 10:25:26;;;;;;;6.67;4.50;;;25.20;80.60;;;;;;4792325;29;20063;-67
2022/06/17 10:27:57;;;;;;;8.45;4.60;;;25.30;73.90;;;;;;4807166;29;20050;-67
2022/06/17 10:30:45;;;;;;;4.68;4.25;;;25.30;77.50;;;;;;4809332;29;20423;-66
2022/06/17 10:33:14;;;;;;;6.38;4.47;;;25.30;72.50;;;;;;4791779;29;20126;-70
2022/06/17 10:35:42;;;;;;;10.23;4.00;;;25.40;77.60;;;;;;4792240;29;20116;-70
2022/06/17 10:38:14;;;;;;;6.35;4.88;;;25.60;84.00;;;;;;4791608;29;20055;-68
2022/06/17 10:40:41;;;;;;;4.80;3.90;;;25.60;72.90;;;;;;4808421;29;20062;-68
2022/06/17 10:43:14;;;;;;;5.18;4.40;;;25.60;72.50;;;;;;4790783;29;20055;-67
2022/06/17 10:45:40;;;;;;;4.78;4.03;;;25.50;72.70;;;;;;4790349;29;20051;-71
2022/06/17 10:48:11;;;;;;;6.30;3.85;;;25.70;72.90;;;;;;4807904;29;20104;-71
2022/06/17 10:50:37;;;;;;;;;;;25.60;70.60;;;;;;4792331;29;20055;-68
2022/06/17 10:53:09;;;;;;;5.22;3.80;;;25.50;65.10;;;;;;4808254;29;19928;-68
2022/06/17 10:55:36;;;;;;;;;;;25.50;67.20;;;;;;4808805;29;20397;-67
2022/06/17 10:58:07;;;;;;;8.43;4.10;;;25.60;65.40;;;;;;4805456;29;20328;-68
2022/06/17 11:00:34;;;;;;;7.45;3.72;;;25.70;66.50;;;;;;4807520;29;20058;-68
2022/06/17 11:03:24;;;;;;;4.50;3.65;;;25.90;65.90;;;;;;4807692;29;20199;-67
2022/06/17 11:05:58;;;;;;;6.28;3.70;;;25.90;61.70;;;;;;4791197;29;20058;-67
2022/06/17 11:08:32;;;;;;;5.50;3.38;;;25.90;63.30;;;;;;4791175;29;20057;-68
2022/06/17 11:12:02;;;;;;;8.38;3.90;;;26.00;63.80;;;;;;4791663;29;20058;-67
2022/06/17 11:13:47;;;;;;;7.30;3.80;;;26.10;64.00;;;;;;4790719;29;20451;-68
2022/06/17 11:16:17;;;;;;;6.57;4.00;;;26.00;62.50;;;;;;4806422;29;20054;-67
2022/06/17 11:18:49;;;;;;;6.07;3.80;;;25.90;61.70;;;;;;4807918;29;20066;-68
2022/06/17 11:21:27;;;;;;;6.50;3.88;;;25.90;62.70;;;;;;4791329;29;20064;-69
2022/06/17 11:23:57;;;;;;;4.05;3.40;;;25.90;61.70;;;;;;4791830;29;20050;-68
2022/06/17 11:26:27;;;;;;;7.20;3.83;;;26.00;63.20;;;;;;4791770;29;20175;-68
2022/06/17 11:28:57;;;;;;;5.20;3.75;;;26.00;63.70;;;;;;4791678;29;20050;-69
2022/06/17 11:31:25;;;;;;;5.75;4.25;;;26.00;62.90;;;;;;4806812;29;20070;-69
2022/06/17 11:33:54;;;;;;;6.20;3.92;;;26.00;62.80;;;;;;4789777;29;20062;-68
2022/06/17 11:36:23;;;;;;;5.20;4.00;;;26.00;62.90;;;;;;4806287;29;20062;-67
2022/06/17 11:38:49;;;;;;;4.45;4.03;;;26.10;63.30;;;;;;4790248;29;20057;-67
2022/06/17 11:41:24;;;;;;;11.60;4.00;;;26.30;62.40;;;;;;4775718;29;20054;-68
2022/06/17 11:43:52;;;;;;;6.13;3.70;;;26.50;63.10;;;;;;4773044;30;20051;-67
2022/06/17 11:46:24;;;;;;;5.32;4.38;;;26.60;62.10;;;;;;4772384;30;20054;-66
2022/06/17 11:49:00;;;;;;;4.72;3.83;;;26.70;60.80;;;;;;4789309;30;20091;-68
2022/06/17 11:51:27;;;;;;;5.55;3.83;;;26.80;60.30;;;;;;4772975;30;20653;-69
2022/06/17 11:54:03;;;;;;;6.63;3.92;;;26.80;61.90;;;;;;4802496;29;20160;-67
2022/06/17 11:56:40;;;;;;;6.78;4.35;;;26.90;60.00;;;;;;4790617;29;20076;-67
2022/06/17 11:59:15;;;;;;;7.85;4.35;;;27.00;58.90;;;;;;4791079;29;20054;-70
2022/06/17 12:01:53;;;;;;;6.72;3.78;;;26.90;58.00;;;;;;4806834;29;20063;-68
2022/06/17 12:04:45;;;;;;;4.03;3.70;;;27.00;59.10;;;;;;4790679;29;20143;-70
2022/06/17 12:07:48;;;;;;;5.05;3.97;;;27.20;58.50;;;;;;4803704;29;20058;-67
2022/06/17 12:10:50;;;;;;;6.30;4.13;;;27.40;58.00;;;;;;4804701;29;20059;-72
2022/06/17 12:13:18;;;;;;;6.68;4.18;;;27.30;57.80;;;;;;4803442;29;20496;-67
2022/06/17 12:15:49;;;;;;;5.43;3.80;;;27.30;59.00;;;;;;4789948;29;20062;-68
2022/06/17 12:18:37;;;;;;;5.97;3.80;;;27.40;59.00;;;;;;4806369;29;20088;-70
2022/06/17 12:21:11;;;;;;;6.10;4.18;;;27.30;54.70;;;;;;4804325;29;20532;-68
2022/06/17 12:23:41;;;;;;;4.70;3.88;;;27.30;56.80;;;;;;4790159;29;20075;-68
2022/06/17 12:26:22;;;;;;;5.43;3.72;;;27.30;56.10;;;;;;4790227;29;20102;-66
2022/06/17 12:29:09;;;;;;;5.82;3.85;;;27.30;55.50;;;;;;4806540;29;20097;-68
2022/06/17 12:32:03;;;;;;;8.68;3.50;;;27.30;56.50;;;;;;4774911;29;20137;-68
2022/06/17 12:34:43;;;;;;;7.60;4.13;;;27.50;56.80;;;;;;4806270;29;20138;-71
2022/06/17 12:37:28;;;;;;;6.05;4.10;;;27.60;55.40;;;;;;4789861;29;20055;-68
2022/06/17 12:40:09;;;;;;;4.82;3.53;;;27.60;54.90;;;;;;4805906;29;20046;-68
2022/06/17 12:43:16;;;;;;;7.22;3.92;;;27.60;55.60;;;;;;4789106;29;20054;-68
2022/06/17 12:45:57;;;;;;;5.15;3.30;;;27.60;55.60;;;;;;4709649;30;20056;-68
2022/06/17 12:48:32;;;;;;;6.00;3.80;;;27.50;54.30;;;;;;4715731;30;20088;-68
2022/06/17 12:54:21;;;;;;;5.90;3.28;;;27.60;56.80;;;;;;4803669;29;20047;-70
2022/06/17 12:57:00;;;;;;;6.70;3.97;;;27.80;55.60;;;;;;4802947;29;20059;-68
2022/06/17 12:59:26;;;;;;;6.65;3.97;;;27.90;55.90;;;;;;4789467;29;20062;-68
2022/06/17 13:01:54;;;;;;;3.78;3.47;;;28.00;55.20;;;;;;4804869;29;20059;-69
2022/06/17 13:04:58;;;;;;;4.78;2.92;;;28.00;55.20;;;;;;4789287;29;20090;-69
2022/06/17 13:11:45;;;;;;;4.88;3.45;;;28.30;52.70;;;;;;4799396;29;20047;-69
2022/06/17 13:18:20;;;;;;;3.75;3.28;;;28.30;54.30;;;;;;4737953;30;20079;-67
2022/06/17 13:20:59;;;;;;;5.80;3.78;;;28.30;54.40;;;;;;4727160;30;20121;-70
2022/06/17 13:23:51;;;;;;;6.53;3.53;;;28.20;54.70;;;;;;4728171;30;20832;-68
2022/06/17 13:31:04;;;;;;;4.15;3.05;;;28.10;53.40;;;;;;4811978;29;20116;-68
2022/06/17 13:46:35;;;;;;;4.35;2.78;;;28.30;51.90;;;;;;4752415;30;20074;-71
2022/06/17 13:57:02;;;;;;;3.83;3.38;;;28.30;53.00;;;;;;4927968;24;20169;-68
2022/06/17 13:59:31;;;;;;;4.75;3.55;;;28.40;53.30;;;;;;4787475;29;20051;-68